createdAt,value
2022-09-16T00:01:20.538Z,14.00
2022-09-16T00:03:49.565Z,14.00
2022-09-16T00:06:23.524Z,14.00
2022-09-16T00:08:52.931Z,14.00
2022-09-16T00:11:21.600Z,14.00
2022-09-16T00:13:50.811Z,14.10
2022-09-16T00:16:22.741Z,14.10
2022-09-16T00:18:54.468Z,14.10
2022-09-16T00:21:23.632Z,14.10
2022-09-16T00:23:52.518Z,14.10
2022-09-16T00:26:21.002Z,14.10
2022-09-16T00:28:50.740Z,14.10
2022-09-16T00:31:20.820Z,14.10
2022-09-16T00:33:49.419Z,14.10
2022-09-16T00:36:20.058Z,14.10
2022-09-16T00:38:52.332Z,14.10
2022-09-16T00:41:23.471Z,14.10
2022-09-16T00:43:55.177Z,14.10
2022-09-16T00:46:33.688Z,14.10
2022-09-16T00:49:06.183Z,14.00
2022-09-16T00:51:35.575Z,14.10
2022-09-16T00:54:06.012Z,14.00
2022-09-16T00:56:39.892Z,14.00
2022-09-16T00:59:13.299Z,14.00
2022-09-16T01:01:45.029Z,14.00
2022-09-16T01:04:17.580Z,14.00
2022-09-16T01:06:46.320Z,14.00
2022-09-16T01:09:15.283Z,14.00
2022-09-16T01:11:43.763Z,14.00
2022-09-16T01:14:30.362Z,14.00
2022-09-16T01:17:08.902Z,14.00
2022-09-16T01:20:00.550Z,14.00
2022-09-16T01:22:47.440Z,14.00
2022-09-16T01:25:32.825Z,13.90
2022-09-16T01:28:37.901Z,13.90
2022-09-16T01:31:15.481Z,14.00
2022-09-16T01:33:53.513Z,13.90
2022-09-16T01:36:32.627Z,13.90
2022-09-16T01:39:21.535Z,13.90
2022-09-16T01:42:20.970Z,13.90
2022-09-16T01:44:56.541Z,13.80
2022-09-16T01:47:35.473Z,13.80
2022-09-16T01:50:10.661Z,13.80
2022-09-16T01:52:46.742Z,13.80
2022-09-16T01:55:21.374Z,13.80
2022-09-16T01:57:54.882Z,13.80
2022-09-16T02:00:24.569Z,13.80
2022-09-16T02:02:59.931Z,13.80
2022-09-16T02:05:34.224Z,13.80
2022-09-16T02:08:08.769Z,13.80
2022-09-16T02:10:42.231Z,13.70
2022-09-16T02:13:18.536Z,13.70
2022-09-16T02:15:49.879Z,13.70
2022-09-16T02:18:25.321Z,13.70
2022-09-16T02:20:57.211Z,13.70
2022-09-16T02:23:31.064Z,13.70
2022-09-16T02:26:01.470Z,13.70
2022-09-16T02:28:34.185Z,13.70
2022-09-16T02:31:07.145Z,13.70
2022-09-16T02:33:41.513Z,13.70
2022-09-16T02:36:12.840Z,13.70
2022-09-16T02:38:46.695Z,13.70
2022-09-16T02:41:15.798Z,13.70
2022-09-16T02:43:45.233Z,13.60
2022-09-16T02:46:25.197Z,13.60
2022-09-16T02:49:03.884Z,13.60
2022-09-16T02:51:40.093Z,13.60
2022-09-16T02:54:17.206Z,13.60
2022-09-16T02:56:45.687Z,13.60
2022-09-16T02:59:16.593Z,13.60
2022-09-16T03:01:47.917Z,13.60
2022-09-16T03:04:20.419Z,13.60
2022-09-16T03:06:49.277Z,13.60
2022-09-16T03:09:23.886Z,13.50
2022-09-16T03:12:24.263Z,13.50
2022-09-16T03:15:13.387Z,13.50
2022-09-16T03:18:04.634Z,13.40
2022-09-16T03:20:43.734Z,13.40
2022-09-16T03:23:22.514Z,13.40
2022-09-16T03:26:00.315Z,13.40
2022-09-16T03:28:34.308Z,13.40
2022-09-16T03:31:07.969Z,13.30
2022-09-16T03:33:42.904Z,13.30
2022-09-16T03:36:17.345Z,13.30
2022-09-16T03:38:46.343Z,13.40
2022-09-16T03:41:16.593Z,13.30
2022-09-16T03:43:54.543Z,13.30
2022-09-16T03:46:23.317Z,13.40
2022-09-16T03:48:51.996Z,13.40
2022-09-16T03:51:22.093Z,13.40
2022-09-16T03:53:50.555Z,13.40
2022-09-16T03:56:19.015Z,13.40
2022-09-16T03:58:49.291Z,13.40
2022-09-16T04:01:17.810Z,13.40
2022-09-16T04:03:46.465Z,13.40
2022-09-16T04:06:15.069Z,13.40
2022-09-16T04:08:45.284Z,13.30
2022-09-16T04:11:13.845Z,13.30
2022-09-16T04:13:42.284Z,13.30
2022-09-16T04:16:10.953Z,13.30
2022-09-16T04:18:39.413Z,13.30
2022-09-16T04:21:07.890Z,13.30
2022-09-16T04:23:36.293Z,13.30
2022-09-16T04:26:06.761Z,13.30
2022-09-16T04:28:36.003Z,13.30
2022-09-16T04:31:05.847Z,13.30
2022-09-16T04:33:36.033Z,13.30
2022-09-16T04:36:06.149Z,13.30
2022-09-16T04:38:34.765Z,13.30
2022-09-16T04:41:06.528Z,13.30
2022-09-16T04:43:35.285Z,13.30
2022-09-16T04:46:04.386Z,13.30
2022-09-16T04:48:32.884Z,13.30
2022-09-16T04:51:04.901Z,13.30
2022-09-16T04:53:34.235Z,13.40
2022-09-16T04:56:09.659Z,13.30
2022-09-16T04:58:38.482Z,13.30
2022-09-16T05:01:12.887Z,13.30
2022-09-16T05:03:42.280Z,13.30
2022-09-16T05:06:15.971Z,13.30
2022-09-16T05:08:47.230Z,13.30
2022-09-16T05:11:19.487Z,13.40
2022-09-16T05:13:48.394Z,13.40
2022-09-16T05:16:18.611Z,13.40
2022-09-16T05:18:48.968Z,13.40
2022-09-16T05:21:19.561Z,13.40
2022-09-16T05:23:49.030Z,13.40
2022-09-16T05:26:20.964Z,13.40
2022-09-16T05:28:51.037Z,13.50
2022-09-16T05:31:21.755Z,13.50
2022-09-16T05:34:00.708Z,13.50
2022-09-16T05:36:31.043Z,13.60
2022-09-16T05:39:21.715Z,13.60
2022-09-16T05:41:49.833Z,13.60
2022-09-16T05:44:18.349Z,13.60
2022-09-16T05:46:46.881Z,13.60
2022-09-16T05:49:20.694Z,13.60
2022-09-16T05:51:50.680Z,13.60
2022-09-16T05:54:20.085Z,13.60
2022-09-16T05:56:50.323Z,13.70
2022-09-16T05:59:19.326Z,13.70
2022-09-16T06:01:48.105Z,13.80
2022-09-16T06:04:17.151Z,13.80
2022-09-16T06:06:47.188Z,13.90
2022-09-16T06:09:17.684Z,13.90
2022-09-16T06:11:47.804Z,13.90
2022-09-16T06:14:19.223Z,14.00
2022-09-16T06:16:48.124Z,14.00
2022-09-16T06:19:18.365Z,14.00
2022-09-16T06:21:48.066Z,14.00
2022-09-16T06:24:18.770Z,14.10
2022-09-16T06:26:49.303Z,14.10
2022-09-16T06:29:19.950Z,14.10
2022-09-16T06:31:48.541Z,14.00
2022-09-16T06:34:18.941Z,14.00
2022-09-16T06:36:47.596Z,14.00
2022-09-16T06:39:17.775Z,14.10
2022-09-16T06:41:46.274Z,14.10
2022-09-16T06:44:14.953Z,14.10
2022-09-16T06:46:44.892Z,14.20
2022-09-16T06:49:13.539Z,14.20
2022-09-16T06:51:42.095Z,14.30
2022-09-16T06:54:13.036Z,14.30
2022-09-16T06:56:41.890Z,14.40
2022-09-16T06:59:13.014Z,14.50
2022-09-16T07:01:42.138Z,14.50
2022-09-16T07:04:13.386Z,14.50
2022-09-16T07:07:08.200Z,14.70
2022-09-16T07:09:31.028Z,14.70
2022-09-16T07:12:00.555Z,14.70
2022-09-16T07:14:29.912Z,14.80
2022-09-16T07:16:58.889Z,14.80
2022-09-16T07:19:29.653Z,14.90
2022-09-16T07:21:58.394Z,15.10
2022-09-16T07:24:26.988Z,15.20
2022-09-16T07:27:14.091Z,15.20
2022-09-16T07:29:42.626Z,15.40
2022-09-16T07:32:11.196Z,15.40
2022-09-16T07:34:41.164Z,15.40
2022-09-16T07:37:09.529Z,15.50
2022-09-16T07:39:38.020Z,15.60
2022-09-16T07:42:07.203Z,15.70
2022-09-16T07:44:35.750Z,15.80
2022-09-16T07:47:04.556Z,16.00
2022-09-16T07:49:32.971Z,16.10
2022-09-16T07:52:03.382Z,16.10
2022-09-16T07:54:31.994Z,16.30
2022-09-16T07:57:00.548Z,16.40
2022-09-16T07:59:29.321Z,16.50
2022-09-16T08:01:57.886Z,16.50
2022-09-16T08:04:26.406Z,16.50
2022-09-16T08:06:54.906Z,16.30
2022-09-16T08:09:38.490Z,16.10
2022-09-16T08:12:11.152Z,16.00
2022-09-16T08:14:39.849Z,15.80
2022-09-16T08:17:08.310Z,15.70
2022-09-16T08:19:38.508Z,15.70
2022-09-16T08:22:06.959Z,15.70
2022-09-16T08:24:36.915Z,15.80
2022-09-16T08:27:05.707Z,16.00
2022-09-16T08:29:34.260Z,16.20
2022-09-16T08:32:03.331Z,16.40
2022-09-16T08:34:31.827Z,16.60
2022-09-16T08:37:00.275Z,16.70
2022-09-16T08:39:28.752Z,16.80
2022-09-16T08:42:31.899Z,16.90
2022-09-16T08:45:14.336Z,17.00
2022-09-16T08:47:54.526Z,17.10
2022-09-16T08:50:27.811Z,17.00
2022-09-16T08:53:00.594Z,17.00
2022-09-16T08:55:33.626Z,16.90
2022-09-16T08:58:06.059Z,17.10
2022-09-16T09:00:35.409Z,17.30
2022-09-16T09:03:15.953Z,17.40
2022-09-16T09:05:51.703Z,17.40
2022-09-16T09:08:31.587Z,17.40
2022-09-16T09:11:06.488Z,17.60
2022-09-16T09:13:47.651Z,17.70
2022-09-16T09:16:29.418Z,17.80
2022-09-16T09:19:11.281Z,17.90
2022-09-16T09:21:46.461Z,18.00
2022-09-16T09:24:30.137Z,18.00
2022-09-16T09:27:04.625Z,17.90
2022-09-16T09:29:52.433Z,17.80
2022-09-16T09:32:27.869Z,17.70
2022-09-16T09:35:22.418Z,17.90
2022-09-16T09:38:13.713Z,18.20
2022-09-16T09:40:47.388Z,18.40
2022-09-16T09:43:19.597Z,18.70
2022-09-16T09:45:58.635Z,18.80
2022-09-16T09:48:31.491Z,18.60
2022-09-16T09:51:06.227Z,18.40
2022-09-16T09:53:38.016Z,18.10
2022-09-16T09:56:19.492Z,18.00
2022-09-16T09:58:58.417Z,17.90
2022-09-16T10:01:28.379Z,17.70
2022-09-16T10:03:57.971Z,17.70
2022-09-16T10:06:31.234Z,17.70
2022-09-16T10:09:00.714Z,17.70
2022-09-16T10:11:31.735Z,17.70
2022-09-16T10:14:02.313Z,17.70
2022-09-16T10:16:37.317Z,17.80
2022-09-16T10:19:07.349Z,18.10
2022-09-16T10:21:44.920Z,18.50
2022-09-16T10:24:34.016Z,18.90
2022-09-16T10:27:19.448Z,19.30
2022-09-16T10:29:47.994Z,19.40
2022-09-16T10:32:20.657Z,19.40
2022-09-16T10:34:49.914Z,19.60
2022-09-16T10:37:20.464Z,19.70
2022-09-16T10:39:54.259Z,19.80
2022-09-16T10:42:24.605Z,19.90
2022-09-16T10:44:56.371Z,20.00
2022-09-16T10:47:29.030Z,20.00
2022-09-16T10:50:01.800Z,19.90
2022-09-16T10:52:31.871Z,19.70
2022-09-16T10:55:18.609Z,19.50
2022-09-16T10:57:48.087Z,19.00
2022-09-16T11:00:18.708Z,18.70
2022-09-16T11:03:39.388Z,18.50
2022-09-16T11:06:29.367Z,18.20
2022-09-16T11:09:06.840Z,18.00
2022-09-16T11:11:47.483Z,17.90
2022-09-16T11:14:26.246Z,17.60
2022-09-16T11:17:16.664Z,17.40
2022-09-16T11:19:58.050Z,17.20
2022-09-16T11:22:37.691Z,16.90
2022-09-16T11:25:30.326Z,16.60
2022-09-16T11:28:09.363Z,16.50
2022-09-16T11:30:44.200Z,16.30
2022-09-16T11:33:24.588Z,16.40
2022-09-16T11:36:20.014Z,16.40
2022-09-16T11:39:01.283Z,16.40
2022-09-16T11:41:34.215Z,16.40
2022-09-16T11:44:23.892Z,16.40
2022-09-16T11:47:05.753Z,16.40
2022-09-16T11:49:57.533Z,16.50
2022-09-16T11:52:42.924Z,16.70
2022-09-16T11:55:24.564Z,17.00
2022-09-16T11:57:57.058Z,17.30
2022-09-16T12:00:25.817Z,17.40
2022-09-16T12:03:00.861Z,17.60
2022-09-16T12:05:34.046Z,17.70
2022-09-16T12:08:12.527Z,17.70
2022-09-16T12:10:48.650Z,17.80
2022-09-16T12:13:22.344Z,17.80
2022-09-16T12:15:55.177Z,17.80
2022-09-16T12:18:28.014Z,17.70
2022-09-16T12:21:05.422Z,17.60
2022-09-16T12:23:42.198Z,17.50
2022-09-16T12:26:14.218Z,17.30
2022-09-16T12:28:48.161Z,17.10
2022-09-16T12:31:23.955Z,16.90
2022-09-16T12:33:58.084Z,16.70
2022-09-16T12:36:31.436Z,16.50
2022-09-16T12:39:01.847Z,16.40
2022-09-16T12:41:55.536Z,16.30
2022-09-16T12:45:02.190Z,16.30
2022-09-16T12:47:52.670Z,16.40
2022-09-16T12:50:44.112Z,16.50
2022-09-16T12:53:46.662Z,16.60
2022-09-16T12:56:29.615Z,16.90
2022-09-16T12:59:15.975Z,17.00
2022-09-16T13:01:49.246Z,17.00
2022-09-16T13:04:20.373Z,17.00
2022-09-16T13:06:51.003Z,17.00
2022-09-16T13:09:25.246Z,17.00
2022-09-16T13:12:36.739Z,16.80
2022-09-16T13:14:54.935Z,16.60
2022-09-16T13:17:30.232Z,16.30
2022-09-16T13:20:06.866Z,16.00
2022-09-16T13:22:44.479Z,15.80
2022-09-16T13:25:21.825Z,15.60
2022-09-16T13:28:01.727Z,15.60
2022-09-16T13:30:36.167Z,15.90
2022-09-16T13:33:26.582Z,15.90
2022-09-16T13:36:33.128Z,15.90
2022-09-16T13:39:03.323Z,15.90
2022-09-16T13:41:35.126Z,16.00
2022-09-16T13:44:30.968Z,16.20
2022-09-16T13:47:16.784Z,16.30
2022-09-16T13:49:50.521Z,16.40
2022-09-16T13:52:22.772Z,16.50
2022-09-16T13:55:10.101Z,16.70
2022-09-16T13:57:55.642Z,16.90
2022-09-16T14:00:32.383Z,17.20
2022-09-16T14:03:41.204Z,17.30
2022-09-16T14:06:42.075Z,17.60
2022-09-16T14:09:30.985Z,17.80
2022-09-16T14:12:07.727Z,18.20
2022-09-16T14:14:53.663Z,18.50
2022-09-16T14:17:27.775Z,18.80
2022-09-16T14:19:59.810Z,19.20
2022-09-16T14:22:30.196Z,19.60
2022-09-16T14:25:12.606Z,19.80
2022-09-16T14:27:47.070Z,20.00
2022-09-16T14:30:18.106Z,20.20
2022-09-16T14:32:49.931Z,20.40
2022-09-16T14:35:22.010Z,20.50
2022-09-16T14:37:54.758Z,20.50
2022-09-16T14:40:25.701Z,20.40
2022-09-16T14:42:57.943Z,20.20
2022-09-16T14:45:26.495Z,19.80
2022-09-16T14:47:58.836Z,19.30
2022-09-16T14:50:31.216Z,18.80
2022-09-16T14:53:01.401Z,18.40
2022-09-16T14:55:32.199Z,18.30
2022-09-16T14:58:01.141Z,18.20
2022-09-16T15:00:33.996Z,18.10
2022-09-16T15:03:11.180Z,18.10
2022-09-16T15:05:42.368Z,18.10
2022-09-16T15:08:16.538Z,18.20
2022-09-16T15:12:46.584Z,18.10
2022-09-16T15:13:40.863Z,18.00
2022-09-16T15:16:12.797Z,17.90
2022-09-16T15:18:45.704Z,17.80
2022-09-16T15:21:19.976Z,17.80
2022-09-16T15:23:51.368Z,17.70
2022-09-16T15:26:22.983Z,17.60
2022-09-16T15:28:57.524Z,17.50
2022-09-16T15:31:32.186Z,17.40
2022-09-16T15:34:04.947Z,17.40
2022-09-16T15:36:42.098Z,17.40
2022-09-16T15:39:24.720Z,17.40
2022-09-16T15:42:10.037Z,17.50
2022-09-16T15:44:39.222Z,17.50
2022-09-16T15:47:07.680Z,17.40
2022-09-16T15:49:41.482Z,17.30
2022-09-16T15:52:12.291Z,17.20
2022-09-16T15:54:49.437Z,17.10
2022-09-16T15:57:28.530Z,17.10
2022-09-16T16:00:09.464Z,17.10
2022-09-16T16:02:45.390Z,17.00
2022-09-16T16:05:18.634Z,16.90
2022-09-16T16:07:49.920Z,16.90
2022-09-16T16:10:21.126Z,16.70
2022-09-16T16:12:50.422Z,16.50
2022-09-16T16:15:21.692Z,15.50
2022-09-16T16:17:51.114Z,14.50
2022-09-16T16:20:21.894Z,13.60
2022-09-16T16:22:51.007Z,13.00
2022-09-16T16:25:20.132Z,12.70
2022-09-16T16:27:48.751Z,12.80
2022-09-16T16:30:17.449Z,12.80
2022-09-16T16:32:46.292Z,12.80
2022-09-16T16:35:15.086Z,12.80
2022-09-16T16:37:46.743Z,12.70
2022-09-16T16:40:16.776Z,12.60
2022-09-16T16:42:45.692Z,12.60
2022-09-16T16:45:14.771Z,12.50
2022-09-16T16:47:44.183Z,12.50
2022-09-16T16:50:12.625Z,12.50
2022-09-16T16:52:41.114Z,12.40
2022-09-16T16:55:11.632Z,12.40
2022-09-16T16:57:40.073Z,12.50
2022-09-16T17:00:10.019Z,12.50
2022-09-16T17:02:38.568Z,12.40
2022-09-16T17:05:07.995Z,12.40
2022-09-16T17:07:37.159Z,12.30
2022-09-16T17:10:06.230Z,12.20
2022-09-16T17:12:37.203Z,12.10
2022-09-16T17:15:06.454Z,12.00
2022-09-16T17:17:34.872Z,11.90
2022-09-16T17:20:03.928Z,11.90
2022-09-16T17:22:32.417Z,11.80
2022-09-16T17:25:00.871Z,11.70
2022-09-16T17:27:29.835Z,11.60
2022-09-16T17:30:02.203Z,11.60
2022-09-16T17:32:30.638Z,11.50
2022-09-16T17:34:59.195Z,11.50
2022-09-16T17:37:27.645Z,11.40
2022-09-16T17:39:56.159Z,11.40
2022-09-16T17:42:25.046Z,11.40
2022-09-16T17:44:53.493Z,11.30
2022-09-16T17:47:23.478Z,11.30
2022-09-16T17:49:52.809Z,11.30
2022-09-16T17:52:21.359Z,11.30
2022-09-16T17:54:49.829Z,11.30
2022-09-16T17:57:18.346Z,11.30
2022-09-16T17:59:46.839Z,11.30
2022-09-16T18:02:15.886Z,11.40
2022-09-16T18:04:47.966Z,11.40
2022-09-16T18:07:16.724Z,11.40
2022-09-16T18:09:45.277Z,11.40
2022-09-16T18:12:13.904Z,11.40
2022-09-16T18:14:42.460Z,11.40
2022-09-16T18:17:10.971Z,11.30
2022-09-16T18:19:40.667Z,11.30
2022-09-16T18:22:10.600Z,11.30
2022-09-16T18:24:39.083Z,11.20
2022-09-16T18:27:07.566Z,11.20
2022-09-16T18:29:36.326Z,11.20
2022-09-16T18:32:04.998Z,11.20
2022-09-16T18:34:34.066Z,11.20
2022-09-16T18:37:02.840Z,11.20
2022-09-16T18:39:33.023Z,11.20
2022-09-16T18:42:01.644Z,11.30
2022-09-16T18:44:30.308Z,11.30
2022-09-16T18:46:58.884Z,11.40
2022-09-16T18:49:29.098Z,11.40
2022-09-16T18:51:57.998Z,11.40
2022-09-16T18:54:28.740Z,11.40
2022-09-16T18:57:00.369Z,11.30
2022-09-16T18:59:30.803Z,11.30
2022-09-16T19:02:01.118Z,11.20
2022-09-16T19:04:32.378Z,11.20
2022-09-16T19:07:08.336Z,11.20
2022-09-16T19:09:39.911Z,11.20
2022-09-16T19:12:12.311Z,11.10
2022-09-16T19:14:41.171Z,11.10
2022-09-16T19:17:09.849Z,11.10
2022-09-16T19:19:38.341Z,11.00
2022-09-16T19:22:06.861Z,11.00
2022-09-16T19:24:35.735Z,11.00
2022-09-16T19:27:04.547Z,10.90
2022-09-16T19:29:34.503Z,10.90
2022-09-16T19:32:03.333Z,10.80
2022-09-16T19:34:31.837Z,10.80
2022-09-16T19:37:00.381Z,10.70
2022-09-16T19:39:28.983Z,10.70
2022-09-16T19:41:57.892Z,10.70
2022-09-16T19:44:26.531Z,10.80
2022-09-16T19:46:56.744Z,10.80
2022-09-16T19:49:25.223Z,10.90
2022-09-16T19:51:54.054Z,10.90
2022-09-16T19:54:24.441Z,10.80
2022-09-16T19:56:53.265Z,10.80
2022-09-16T19:59:22.359Z,10.80
2022-09-16T20:01:51.122Z,10.80
2022-09-16T20:04:21.474Z,10.80
2022-09-16T20:06:50.482Z,10.80
2022-09-16T20:09:19.902Z,10.80
2022-09-16T20:11:50.047Z,10.90
2022-09-16T20:14:20.518Z,10.80
2022-09-16T20:16:49.608Z,10.80
2022-09-16T20:19:21.250Z,10.90
2022-09-16T20:21:50.123Z,11.00
2022-09-16T20:24:20.567Z,11.00
2022-09-16T20:26:49.420Z,11.00
2022-09-16T20:29:18.723Z,11.00
2022-09-16T20:31:48.427Z,10.90
2022-09-16T20:34:17.029Z,10.90
2022-09-16T20:36:47.791Z,11.00
2022-09-16T20:39:16.804Z,10.90
2022-09-16T20:41:49.892Z,10.90
2022-09-16T20:44:18.595Z,10.80
2022-09-16T20:46:49.000Z,10.80
2022-09-16T20:49:23.002Z,10.70
2022-09-16T20:51:53.172Z,10.60
2022-09-16T20:54:21.771Z,10.60
2022-09-16T20:56:51.267Z,10.50
2022-09-16T20:59:21.659Z,10.50
2022-09-16T21:01:50.830Z,10.40
2022-09-16T21:04:21.260Z,10.40
2022-09-16T21:06:49.779Z,10.30
2022-09-16T21:09:19.891Z,10.20
2022-09-16T21:11:50.215Z,10.20
2022-09-16T21:14:21.791Z,10.10
2022-09-16T21:16:51.667Z,10.00
2022-09-16T21:19:20.310Z,10.00
2022-09-16T21:21:48.881Z,9.90
2022-09-16T21:24:17.809Z,9.90
2022-09-16T21:26:48.116Z,9.80
2022-09-16T21:29:21.270Z,9.70
2022-09-16T21:31:50.263Z,9.70
2022-09-16T21:34:20.476Z,9.70
2022-09-16T21:36:49.790Z,9.70
2022-09-16T21:39:19.654Z,9.80
2022-09-16T21:41:50.374Z,9.80
2022-09-16T21:44:19.364Z,9.80
2022-09-16T21:46:49.732Z,9.70
2022-09-16T21:49:24.358Z,9.70
2022-09-16T21:51:54.613Z,9.70
2022-09-16T21:54:23.975Z,9.60
2022-09-16T21:56:54.262Z,9.60
2022-09-16T21:59:22.942Z,9.50
2022-09-16T22:01:52.828Z,9.50
2022-09-16T22:04:23.269Z,9.50
2022-09-16T22:06:54.042Z,9.50
2022-09-16T22:09:22.747Z,9.50
2022-09-16T22:11:51.671Z,9.50
2022-09-16T22:14:21.767Z,9.50
2022-09-16T22:16:50.200Z,9.60
2022-09-16T22:19:20.212Z,9.60
2022-09-16T22:21:51.350Z,9.50
2022-09-16T22:24:21.654Z,9.60
2022-09-16T22:26:51.529Z,9.60
2022-09-16T22:29:21.892Z,9.60
2022-09-16T22:31:50.557Z,9.60
2022-09-16T22:34:19.436Z,9.60
2022-09-16T22:36:48.161Z,9.60
2022-09-16T22:39:18.476Z,9.60
2022-09-16T22:41:47.605Z,9.60
2022-09-16T22:44:16.457Z,9.50
2022-09-16T22:46:48.264Z,9.50
2022-09-16T22:49:17.631Z,9.50
2022-09-16T22:51:46.709Z,9.50
2022-09-16T22:54:16.009Z,9.40
2022-09-16T22:56:45.448Z,9.40
2022-09-16T22:59:18.886Z,9.40
2022-09-16T23:01:49.393Z,9.40
2022-09-16T23:04:18.271Z,9.30
2022-09-16T23:06:46.941Z,9.30
2022-09-16T23:09:15.872Z,9.20
2022-09-16T23:11:44.755Z,9.20
2022-09-16T23:14:15.583Z,9.20
2022-09-16T23:16:44.188Z,9.20
2022-09-16T23:19:14.217Z,9.20
2022-09-16T23:21:43.031Z,9.20
2022-09-16T23:24:17.180Z,9.10
2022-09-16T23:26:47.080Z,9.10
2022-09-16T23:29:18.169Z,9.00
2022-09-16T23:31:47.306Z,9.00
2022-09-16T23:34:20.093Z,9.00
2022-09-16T23:36:49.290Z,8.90
2022-09-16T23:39:18.730Z,8.90
2022-09-16T23:41:48.182Z,8.90
2022-09-16T23:44:17.473Z,8.90
2022-09-16T23:46:46.437Z,8.90
2022-09-16T23:49:17.075Z,8.80
2022-09-16T23:51:47.529Z,8.70
2022-09-16T23:54:17.342Z,8.70
2022-09-16T23:56:46.698Z,8.70
2022-09-16T23:59:15.299Z,8.70
